Sks Tweed — LACO5 — position and weather

sailwx.info

Track history (hours):
 
Tides and Currents Weather Stations Pressure Air Temp Water Temp Dewpoint Dewpoint Depression Visibility Wind Speed Wind Dir Waves Ship Positions

Sks Tweed

Last reported at 2014-Jun-25 08:33 UTC. Time now 2014-Jul-24 01:52 UTC.
Position N 51°27' E 003°42'.
Warning: this ship's position is 28 days out of date.

Length 243 m; draft 14.7 m.

Type: Ship. MMSI: 259797000.

Date/timePositionNaut miles runAvg speedWind from/ knotsBaromVisibWave heightAir tempDewpointWater temp
2014-Jun-25 08:33N 51°27' E 003°42'0 0.0
2014-Jun-25 07:33N 51°27' E 003°42'0 0.0
2014-Jun-25 06:33N 51°27' E 003°42'0 0.0
2014-Jun-25 05:33N 51°27' E 003°42'0 0.0
2014-Jun-25 04:33N 51°27' E 003°42'0 0.0
2014-Jun-25 03:33N 51°27' E 003°42'0 0.0
2014-Jun-25 02:33N 51°27' E 003°42'0 0.0
2014-Jun-25 01:33N 51°27' E 003°42'0 0.0
2014-Jun-25 00:33N 51°27' E 003°42'0 0.0
2014-Jun-24 23:33N 51°27' E 003°42'0 0.0
2014-Jun-24 22:33N 51°27' E 003°42'0 0.0
2014-Jun-24 21:33N 51°27' E 003°42'0 0.0
2014-Jun-24 20:33N 51°27' E 003°42'0 0.0
2014-Jun-24 19:33N 51°27' E 003°42'0 0.0
2014-Jun-24 18:33N 51°27' E 003°42'0 0.0
2014-Jun-24 17:33N 51°27' E 003°42'0 0.0
2014-Jun-24 16:33N 51°27' E 003°42'0 0.0
2014-Jun-24 15:33N 51°27' E 003°42'0 0.0
2014-Jun-24 14:33N 51°27' E 003°42'0 0.0
2014-Jun-24 13:33N 51°27' E 003°42'0 0.4
2014-Jun-24 12:33N 51°27' E 003°42'4 4.2
2014-Jun-24 11:33N 51°26' E 003°36'10 9.8
2014-Jun-24 10:33N 51°24' E 003°20'9 8.7
2014-Jun-24 09:33N 51°24' E 003°06'8 7.6
2014-Jun-24 08:33N 51°25' E 002°54'6 6.3
2014-Jun-24 07:34N 51°23' E 002°45'8 8.3
2014-Jun-24 06:33N 51°22' E 002°32'8 8.1
2014-Jun-24 05:34N 51°19' E 002°19'8 7.6
2014-Jun-24 04:33N 51°16' E 002°09'5 5.2
2014-Jun-24 03:33N 51°13' E 002°01'6 5.8
2014-Jun-24 02:34N 51°10' E 001°53'6 6.3
2014-Jun-24 01:34N 51°07' E 001°45'7 7.1
2014-Jun-24 00:34N 51°01' E 001°38'11 9.8
2014-Jun-23 23:25N 50°52' E 001°27'1011.4
2014-Jun-23 22:33N 50°43' E 001°22'11 8.6
2014-Jun-23 21:14N 50°35' E 001°09'6 7.9
2014-Jun-23 20:29N 50°31' E 001°02'1110.5
2014-Jun-23 19:29N 50°28' E 000°46'7 8.0
2014-Jun-23 18:33N 50°26' E 000°35'9 8.3
2014-Jun-23 17:30N 50°23' E 000°22'19 9.3
2014-Jun-23 15:24N 50°18' W 000°07'5 6.2
2014-Jun-23 14:34N 50°17' W 000°15'6 3.1
2014-Jun-23 12:33N 50°15' W 000°25'2 2.2
2014-Jun-23 11:33N 50°15' W 000°28'2 2.1
2014-Jun-23 10:33N 50°14' W 000°31'2 2.4
2014-Jun-23 09:33N 50°13' W 000°35'3 2.9
2014-Jun-23 08:33N 50°13' W 000°39'4 3.9
2014-Jun-23 07:33N 50°12' W 000°45'5 5.4
2014-Jun-23 06:33N 50°10' W 000°53'1111.1
2014-Jun-23 05:33N 50°07' W 001°09'1212.4
2014-Jun-23 04:34N 50°04' W 001°28'2812.2
2014-Jun-23 02:14N 49°56' W 002°11'  
Track history (hours):
 
Tides and Currents Weather Stations Pressure Air Temp Water Temp Dewpoint Dewpoint Depression Visibility Wind Speed Wind Dir Waves Ship Positions

Sks Tweed

Last reported at 2014-Jun-25 08:33 UTC. Time now 2014-Jul-24 01:52 UTC.
Position N 51°27' E 003°42'.
Warning: this ship's position is 28 days out of date.

Length 243 m; draft 14.7 m.

Type: Ship. MMSI: 259797000.

Date/timePositionNaut miles runAvg speedWind from/ knotsBaromVisibWave heightAir tempDewpointWater temp
2014-Jun-25 08:33N 51°27' E 003°42'0 0.0
2014-Jun-25 07:33N 51°27' E 003°42'0 0.0
2014-Jun-25 06:33N 51°27' E 003°42'0 0.0
2014-Jun-25 05:33N 51°27' E 003°42'0 0.0
2014-Jun-25 04:33N 51°27' E 003°42'0 0.0
2014-Jun-25 03:33N 51°27' E 003°42'0 0.0
2014-Jun-25 02:33N 51°27' E 003°42'0 0.0
2014-Jun-25 01:33N 51°27' E 003°42'0 0.0
2014-Jun-25 00:33N 51°27' E 003°42'0 0.0
2014-Jun-24 23:33N 51°27' E 003°42'0 0.0
2014-Jun-24 22:33N 51°27' E 003°42'0 0.0
2014-Jun-24 21:33N 51°27' E 003°42'0 0.0
2014-Jun-24 20:33N 51°27' E 003°42'0 0.0
2014-Jun-24 19:33N 51°27' E 003°42'0 0.0
2014-Jun-24 18:33N 51°27' E 003°42'0 0.0
2014-Jun-24 17:33N 51°27' E 003°42'0 0.0
2014-Jun-24 16:33N 51°27' E 003°42'0 0.0
2014-Jun-24 15:33N 51°27' E 003°42'0 0.0
2014-Jun-24 14:33N 51°27' E 003°42'0 0.0
2014-Jun-24 13:33N 51°27' E 003°42'0 0.4
2014-Jun-24 12:33N 51°27' E 003°42'4 4.2
2014-Jun-24 11:33N 51°26' E 003°36'10 9.8
2014-Jun-24 10:33N 51°24' E 003°20'9 8.7
2014-Jun-24 09:33N 51°24' E 003°06'8 7.6
2014-Jun-24 08:33N 51°25' E 002°54'6 6.3
2014-Jun-24 07:34N 51°23' E 002°45'8 8.3
2014-Jun-24 06:33N 51°22' E 002°32'8 8.1
2014-Jun-24 05:34N 51°19' E 002°19'8 7.6
2014-Jun-24 04:33N 51°16' E 002°09'5 5.2
2014-Jun-24 03:33N 51°13' E 002°01'6 5.8
2014-Jun-24 02:34N 51°10' E 001°53'6 6.3
2014-Jun-24 01:34N 51°07' E 001°45'7 7.1
2014-Jun-24 00:34N 51°01' E 001°38'11 9.8
2014-Jun-23 23:25N 50°52' E 001°27'1011.4
2014-Jun-23 22:33N 50°43' E 001°22'11 8.6
2014-Jun-23 21:14N 50°35' E 001°09'6 7.9
2014-Jun-23 20:29N 50°31' E 001°02'1110.5
2014-Jun-23 19:29N 50°28' E 000°46'7 8.0
2014-Jun-23 18:33N 50°26' E 000°35'9 8.3
2014-Jun-23 17:30N 50°23' E 000°22'19 9.3
2014-Jun-23 15:24N 50°18' W 000°07'5 6.2
2014-Jun-23 14:34N 50°17' W 000°15'6 3.1
2014-Jun-23 12:33N 50°15' W 000°25'2 2.2
2014-Jun-23 11:33N 50°15' W 000°28'2 2.1
2014-Jun-23 10:33N 50°14' W 000°31'2 2.4
2014-Jun-23 09:33N 50°13' W 000°35'3 2.9
2014-Jun-23 08:33N 50°13' W 000°39'4 3.9
2014-Jun-23 07:33N 50°12' W 000°45'5 5.4
2014-Jun-23 06:33N 50°10' W 000°53'1111.1
2014-Jun-23 05:33N 50°07' W 001°09'1212.4
2014-Jun-23 04:34N 50°04' W 001°28'2812.2
2014-Jun-23 02:14N 49°56' W 002°11'  

Dump ship's entire track history